sensor_id;sensor_type;location;lat;lon;timestamp;temperature;humidity
78788;DHT22;68131;52.508;5.502;2023-04-25T00:00:09;9.10;68.30
78788;DHT22;68131;52.508;5.502;2023-04-25T00:02:39;9.20;68.40
78788;DHT22;68131;52.508;5.502;2023-04-25T00:05:08;9.20;68.30
78788;DHT22;68131;52.508;5.502;2023-04-25T00:07:40;9.10;68.10
78788;DHT22;68131;52.508;5.502;2023-04-25T00:10:10;9.10;68.00
78788;DHT22;68131;52.508;5.502;2023-04-25T00:12:40;9.10;67.90
78788;DHT22;68131;52.508;5.502;2023-04-25T00:15:10;9.10;67.80
78788;DHT22;68131;52.508;5.502;2023-04-25T00:17:39;9.10;67.80
78788;DHT22;68131;52.508;5.502;2023-04-25T00:20:09;9.10;67.60
78788;DHT22;68131;52.508;5.502;2023-04-25T00:22:41;9.10;67.60
78788;DHT22;68131;52.508;5.502;2023-04-25T00:25:10;9.10;67.40
78788;DHT22;68131;52.508;5.502;2023-04-25T00:27:39;9.00;67.40
78788;DHT22;68131;52.508;5.502;2023-04-25T00:30:09;9.00;67.20
78788;DHT22;68131;52.508;5.502;2023-04-25T00:32:39;9.00;67.10
78788;DHT22;68131;52.508;5.502;2023-04-25T00:35:09;9.00;67.20
78788;DHT22;68131;52.508;5.502;2023-04-25T00:37:41;9.00;66.80
78788;DHT22;68131;52.508;5.502;2023-04-25T00:40:10;9.00;66.60
78788;DHT22;68131;52.508;5.502;2023-04-25T00:42:40;9.00;66.10
78788;DHT22;68131;52.508;5.502;2023-04-25T00:45:13;9.00;65.70
78788;DHT22;68131;52.508;5.502;2023-04-25T00:47:42;9.00;65.80
78788;DHT22;68131;52.508;5.502;2023-04-25T00:50:12;9.00;65.80
78788;DHT22;68131;52.508;5.502;2023-04-25T00:52:44;9.00;65.90
78788;DHT22;68131;52.508;5.502;2023-04-25T00:55:13;9.10;65.90
78788;DHT22;68131;52.508;5.502;2023-04-25T00:57:43;9.10;65.70
78788;DHT22;68131;52.508;5.502;2023-04-25T01:00:13;9.00;65.30
78788;DHT22;68131;52.508;5.502;2023-04-25T01:02:44;9.00;65.10
78788;DHT22;68131;52.508;5.502;2023-04-25T01:05:14;9.00;65.20
78788;DHT22;68131;52.508;5.502;2023-04-25T01:07:48;9.00;65.20
78788;DHT22;68131;52.508;5.502;2023-04-25T01:10:17;9.00;65.10
78788;DHT22;68131;52.508;5.502;2023-04-25T01:12:46;9.00;65.20
78788;DHT22;68131;52.508;5.502;2023-04-25T01:15:16;9.00;65.10
78788;DHT22;68131;52.508;5.502;2023-04-25T01:17:45;9.00;65.20
78788;DHT22;68131;52.508;5.502;2023-04-25T01:20:15;9.00;65.20
78788;DHT22;68131;52.508;5.502;2023-04-25T01:22:47;9.00;65.10
78788;DHT22;68131;52.508;5.502;2023-04-25T01:25:17;9.00;65.00
78788;DHT22;68131;52.508;5.502;2023-04-25T01:27:47;9.00;64.70
78788;DHT22;68131;52.508;5.502;2023-04-25T01:30:17;9.00;64.50
78788;DHT22;68131;52.508;5.502;2023-04-25T01:32:47;9.00;64.50
78788;DHT22;68131;52.508;5.502;2023-04-25T01:35:17;9.00;64.60
78788;DHT22;68131;52.508;5.502;2023-04-25T01:37:48;9.00;64.60
78788;DHT22;68131;52.508;5.502;2023-04-25T01:40:18;9.00;64.70
78788;DHT22;68131;52.508;5.502;2023-04-25T01:42:48;9.00;64.90
78788;DHT22;68131;52.508;5.502;2023-04-25T01:45:18;9.00;65.20
78788;DHT22;68131;52.508;5.502;2023-04-25T01:47:48;9.00;65.20
78788;DHT22;68131;52.508;5.502;2023-04-25T01:50:18;9.00;65.20
78788;DHT22;68131;52.508;5.502;2023-04-25T01:52:50;9.00;65.10
78788;DHT22;68131;52.508;5.502;2023-04-25T01:55:19;8.90;65.20
78788;DHT22;68131;52.508;5.502;2023-04-25T01:57:57;8.80;65.20
78788;DHT22;68131;52.508;5.502;2023-04-25T02:00:40;8.80;65.50
78788;DHT22;68131;52.508;5.502;2023-04-25T02:03:09;8.80;65.60
78788;DHT22;68131;52.508;5.502;2023-04-25T02:05:39;8.80;65.70
78788;DHT22;68131;52.508;5.502;2023-04-25T02:08:16;8.80;65.70
78788;DHT22;68131;52.508;5.502;2023-04-25T02:10:45;8.80;65.50
78788;DHT22;68131;52.508;5.502;2023-04-25T02:13:18;8.80;65.40
78788;DHT22;68131;52.508;5.502;2023-04-25T02:15:57;8.80;65.40
78788;DHT22;68131;52.508;5.502;2023-04-25T02:18:26;8.80;65.60
78788;DHT22;68131;52.508;5.502;2023-04-25T02:20:55;8.80;65.50
78788;DHT22;68131;52.508;5.502;2023-04-25T02:23:27;8.70;65.60
78788;DHT22;68131;52.508;5.502;2023-04-25T02:25:57;8.70;65.70
78788;DHT22;68131;52.508;5.502;2023-04-25T02:28:26;8.70;65.70
78788;DHT22;68131;52.508;5.502;2023-04-25T02:30:55;8.70;65.80
78788;DHT22;68131;52.508;5.502;2023-04-25T02:33:24;8.70;65.90
78788;DHT22;68131;52.508;5.502;2023-04-25T02:35:53;8.70;65.90
78788;DHT22;68131;52.508;5.502;2023-04-25T02:38:22;8.70;65.90
78788;DHT22;68131;52.508;5.502;2023-04-25T02:40:54;8.80;66.10
78788;DHT22;68131;52.508;5.502;2023-04-25T02:43:26;8.70;66.20
78788;DHT22;68131;52.508;5.502;2023-04-25T02:45:55;8.70;66.20
78788;DHT22;68131;52.508;5.502;2023-04-25T02:48:24;8.80;66.40
78788;DHT22;68131;52.508;5.502;2023-04-25T02:50:54;8.80;66.30
78788;DHT22;68131;52.508;5.502;2023-04-25T02:53:23;8.80;66.40
78788;DHT22;68131;52.508;5.502;2023-04-25T02:55:56;8.80;66.30
78788;DHT22;68131;52.508;5.502;2023-04-25T02:58:25;8.80;66.20
78788;DHT22;68131;52.508;5.502;2023-04-25T03:00:54;8.80;66.20
78788;DHT22;68131;52.508;5.502;2023-04-25T03:03:24;8.90;66.10
78788;DHT22;68131;52.508;5.502;2023-04-25T03:05:53;8.90;65.80
78788;DHT22;68131;52.508;5.502;2023-04-25T03:08:26;8.90;65.70
78788;DHT22;68131;52.508;5.502;2023-04-25T03:11:02;8.80;65.50
78788;DHT22;68131;52.508;5.502;2023-04-25T03:13:31;8.80;65.40
78788;DHT22;68131;52.508;5.502;2023-04-25T03:16:00;8.70;65.20
78788;DHT22;68131;52.508;5.502;2023-04-25T03:18:30;8.70;65.40
78788;DHT22;68131;52.508;5.502;2023-04-25T03:20:59;8.70;65.50
78788;DHT22;68131;52.508;5.502;2023-04-25T03:23:30;8.70;65.20
78788;DHT22;68131;52.508;5.502;2023-04-25T03:26:02;8.70;65.20
78788;DHT22;68131;52.508;5.502;2023-04-25T03:28:32;8.70;65.40
78788;DHT22;68131;52.508;5.502;2023-04-25T03:31:01;8.70;65.50
78788;DHT22;68131;52.508;5.502;2023-04-25T03:33:30;8.70;65.50
78788;DHT22;68131;52.508;5.502;2023-04-25T03:35:59;8.70;65.40
78788;DHT22;68131;52.508;5.502;2023-04-25T03:38:29;8.70;65.40
78788;DHT22;68131;52.508;5.502;2023-04-25T03:40:58;8.70;64.90
78788;DHT22;68131;52.508;5.502;2023-04-25T03:43:42;8.60;65.00
78788;DHT22;68131;52.508;5.502;2023-04-25T03:46:13;8.70;65.20
78788;DHT22;68131;52.508;5.502;2023-04-25T03:48:42;8.70;65.00
78788;DHT22;68131;52.508;5.502;2023-04-25T03:51:17;8.60;64.80
78788;DHT22;68131;52.508;5.502;2023-04-25T03:53:47;8.70;64.80
78788;DHT22;68131;52.508;5.502;2023-04-25T03:56:19;8.60;64.80
78788;DHT22;68131;52.508;5.502;2023-04-25T03:58:58;8.70;64.70
78788;DHT22;68131;52.508;5.502;2023-04-25T04:01:29;8.70;64.90
78788;DHT22;68131;52.508;5.502;2023-04-25T04:03:58;8.70;64.80
78788;DHT22;68131;52.508;5.502;2023-04-25T04:06:27;8.70;65.00
78788;DHT22;68131;52.508;5.502;2023-04-25T04:09:03;8.70;65.10
78788;DHT22;68131;52.508;5.502;2023-04-25T04:11:37;8.70;65.40
78788;DHT22;68131;52.508;5.502;2023-04-25T04:14:09;8.60;65.60
78788;DHT22;68131;52.508;5.502;2023-04-25T04:16:43;8.60;65.90
78788;DHT22;68131;52.508;5.502;2023-04-25T04:19:12;8.60;66.10
78788;DHT22;68131;52.508;5.502;2023-04-25T04:21:47;8.60;66.10
78788;DHT22;68131;52.508;5.502;2023-04-25T04:24:16;8.50;66.20
78788;DHT22;68131;52.508;5.502;2023-04-25T04:26:51;8.50;66.20
78788;DHT22;68131;52.508;5.502;2023-04-25T04:29:38;8.50;66.40
78788;DHT22;68131;52.508;5.502;2023-04-25T04:32:24;8.50;66.50
78788;DHT22;68131;52.508;5.502;2023-04-25T04:34:54;8.50;66.30
78788;DHT22;68131;52.508;5.502;2023-04-25T04:37:25;8.50;66.40
78788;DHT22;68131;52.508;5.502;2023-04-25T04:39:54;8.60;66.40
78788;DHT22;68131;52.508;5.502;2023-04-25T04:42:28;8.60;66.20
78788;DHT22;68131;52.508;5.502;2023-04-25T04:45:09;8.60;66.20
78788;DHT22;68131;52.508;5.502;2023-04-25T04:47:46;8.60;66.10
78788;DHT22;68131;52.508;5.502;2023-04-25T04:50:34;8.70;66.10
78788;DHT22;68131;52.508;5.502;2023-04-25T04:53:14;8.70;65.90
78788;DHT22;68131;52.508;5.502;2023-04-25T04:56:09;8.60;66.10
78788;DHT22;68131;52.508;5.502;2023-04-25T04:58:53;8.60;66.10
78788;DHT22;68131;52.508;5.502;2023-04-25T05:01:37;8.70;66.20
78788;DHT22;68131;52.508;5.502;2023-04-25T05:04:15;8.70;66.20
78788;DHT22;68131;52.508;5.502;2023-04-25T05:06:47;8.70;66.00
78788;DHT22;68131;52.508;5.502;2023-04-25T05:09:36;8.70;66.10
78788;DHT22;68131;52.508;5.502;2023-04-25T05:12:30;8.70;66.10
78788;DHT22;68131;52.508;5.502;2023-04-25T05:15:24;8.70;65.80
78788;DHT22;68131;52.508;5.502;2023-04-25T05:18:16;8.70;65.70
78788;DHT22;68131;52.508;5.502;2023-04-25T05:20:52;8.70;65.80
78788;DHT22;68131;52.508;5.502;2023-04-25T05:23:40;8.70;65.60
78788;DHT22;68131;52.508;5.502;2023-04-25T05:26:22;8.70;65.50
78788;DHT22;68131;52.508;5.502;2023-04-25T05:29:21;8.80;65.50
78788;DHT22;68131;52.508;5.502;2023-04-25T05:32:09;8.80;65.30
78788;DHT22;68131;52.508;5.502;2023-04-25T05:34:40;9.00;65.00
78788;DHT22;68131;52.508;5.502;2023-04-25T05:37:19;9.30;64.90
78788;DHT22;68131;52.508;5.502;2023-04-25T05:39:58;9.50;64.60
78788;DHT22;68131;52.508;5.502;2023-04-25T05:42:41;9.50;64.30
78788;DHT22;68131;52.508;5.502;2023-04-25T05:45:46;9.50;64.20
78788;DHT22;68131;52.508;5.502;2023-04-25T05:48:40;9.40;64.30
78788;DHT22;68131;52.508;5.502;2023-04-25T05:51:38;9.30;64.30
78788;DHT22;68131;52.508;5.502;2023-04-25T05:54:30;9.30;63.70
78788;DHT22;68131;52.508;5.502;2023-04-25T05:56:59;9.20;63.80
78788;DHT22;68131;52.508;5.502;2023-04-25T05:59:28;9.20;63.70
78788;DHT22;68131;52.508;5.502;2023-04-25T06:01:57;9.20;63.60
78788;DHT22;68131;52.508;5.502;2023-04-25T06:04:28;9.20;63.60
78788;DHT22;68131;52.508;5.502;2023-04-25T06:06:59;9.20;63.60
78788;DHT22;68131;52.508;5.502;2023-04-25T06:09:29;9.30;63.20
78788;DHT22;68131;52.508;5.502;2023-04-25T06:11:58;9.20;62.80
78788;DHT22;68131;52.508;5.502;2023-04-25T06:14:29;9.20;63.10
78788;DHT22;68131;52.508;5.502;2023-04-25T06:16:58;9.30;62.90
78788;DHT22;68131;52.508;5.502;2023-04-25T06:19:32;9.30;63.00
78788;DHT22;68131;52.508;5.502;2023-04-25T06:22:04;9.40;62.90
78788;DHT22;68131;52.508;5.502;2023-04-25T06:24:34;9.40;62.80
78788;DHT22;68131;52.508;5.502;2023-04-25T06:27:04;9.40;62.70
78788;DHT22;68131;52.508;5.502;2023-04-25T06:29:34;9.40;62.60
78788;DHT22;68131;52.508;5.502;2023-04-25T06:32:03;9.40;62.50
78788;DHT22;68131;52.508;5.502;2023-04-25T06:34:33;9.50;62.60
78788;DHT22;68131;52.508;5.502;2023-04-25T06:37:04;9.50;62.50
78788;DHT22;68131;52.508;5.502;2023-04-25T06:39:33;9.60;62.40
78788;DHT22;68131;52.508;5.502;2023-04-25T06:42:03;9.80;62.20
78788;DHT22;68131;52.508;5.502;2023-04-25T06:44:50;10.00;62.00
78788;DHT22;68131;52.508;5.502;2023-04-25T06:47:20;10.20;61.70
78788;DHT22;68131;52.508;5.502;2023-04-25T06:49:50;10.20;61.70
78788;DHT22;68131;52.508;5.502;2023-04-25T06:52:22;10.30;62.10
78788;DHT22;68131;52.508;5.502;2023-04-25T06:54:53;10.30;62.00
78788;DHT22;68131;52.508;5.502;2023-04-25T06:57:40;10.10;61.60
78788;DHT22;68131;52.508;5.502;2023-04-25T07:00:32;10.00;61.60
78788;DHT22;68131;52.508;5.502;2023-04-25T07:03:01;9.90;61.90
78788;DHT22;68131;52.508;5.502;2023-04-25T07:05:30;9.80;62.30
78788;DHT22;68131;52.508;5.502;2023-04-25T07:08:03;9.70;62.60
78788;DHT22;68131;52.508;5.502;2023-04-25T07:10:32;9.70;62.80
78788;DHT22;68131;52.508;5.502;2023-04-25T07:13:02;9.80;62.80
78788;DHT22;68131;52.508;5.502;2023-04-25T07:15:31;10.00;63.20
78788;DHT22;68131;52.508;5.502;2023-04-25T07:18:01;10.40;62.90
78788;DHT22;68131;52.508;5.502;2023-04-25T07:20:31;10.70;62.60
78788;DHT22;68131;52.508;5.502;2023-04-25T07:23:04;11.00;61.60
78788;DHT22;68131;52.508;5.502;2023-04-25T07:25:33;11.00;61.10
78788;DHT22;68131;52.508;5.502;2023-04-25T07:28:03;11.00;60.80
78788;DHT22;68131;52.508;5.502;2023-04-25T07:30:32;11.00;60.00
78788;DHT22;68131;52.508;5.502;2023-04-25T07:33:04;10.90;59.70
78788;DHT22;68131;52.508;5.502;2023-04-25T07:35:33;10.90;59.10
78788;DHT22;68131;52.508;5.502;2023-04-25T07:38:07;10.90;57.40
78788;DHT22;68131;52.508;5.502;2023-04-25T07:40:37;10.70;56.90
78788;DHT22;68131;52.508;5.502;2023-04-25T07:43:08;10.70;57.40
78788;DHT22;68131;52.508;5.502;2023-04-25T07:45:46;10.70;57.10
78788;DHT22;68131;52.508;5.502;2023-04-25T07:48:18;10.60;57.50
78788;DHT22;68131;52.508;5.502;2023-04-25T07:50:48;10.60;57.60
78788;DHT22;68131;52.508;5.502;2023-04-25T07:53:20;10.60;57.80
78788;DHT22;68131;52.508;5.502;2023-04-25T07:55:54;10.60;57.90
78788;DHT22;68131;52.508;5.502;2023-04-25T07:58:23;10.80;58.10
78788;DHT22;68131;52.508;5.502;2023-04-25T08:00:57;11.00;58.20
78788;DHT22;68131;52.508;5.502;2023-04-25T08:03:44;11.30;57.90
78788;DHT22;68131;52.508;5.502;2023-04-25T08:06:22;11.70;57.60
78788;DHT22;68131;52.508;5.502;2023-04-25T08:09:20;12.10;57.10
78788;DHT22;68131;52.508;5.502;2023-04-25T08:11:51;12.50;56.20
78788;DHT22;68131;52.508;5.502;2023-04-25T08:14:26;12.70;56.30
78788;DHT22;68131;52.508;5.502;2023-04-25T08:16:57;12.90;56.00
78788;DHT22;68131;52.508;5.502;2023-04-25T08:19:27;13.20;55.80
78788;DHT22;68131;52.508;5.502;2023-04-25T08:21:56;13.50;55.10
78788;DHT22;68131;52.508;5.502;2023-04-25T08:24:37;13.80;54.80
78788;DHT22;68131;52.508;5.502;2023-04-25T08:27:07;13.90;54.40
78788;DHT22;68131;52.508;5.502;2023-04-25T08:29:37;13.90;54.50
78788;DHT22;68131;52.508;5.502;2023-04-25T08:32:06;13.90;54.50
78788;DHT22;68131;52.508;5.502;2023-04-25T08:34:39;13.90;54.50
78788;DHT22;68131;52.508;5.502;2023-04-25T08:37:09;14.00;53.90
78788;DHT22;68131;52.508;5.502;2023-04-25T08:39:57;13.90;53.60
78788;DHT22;68131;52.508;5.502;2023-04-25T08:42:45;14.00;54.00
78788;DHT22;68131;52.508;5.502;2023-04-25T08:45:16;14.10;53.50
78788;DHT22;68131;52.508;5.502;2023-04-25T08:47:46;14.30;53.60
78788;DHT22;68131;52.508;5.502;2023-04-25T08:50:17;14.40;53.00
78788;DHT22;68131;52.508;5.502;2023-04-25T08:52:50;14.50;52.90
78788;DHT22;68131;52.508;5.502;2023-04-25T08:55:22;14.40;52.00
78788;DHT22;68131;52.508;5.502;2023-04-25T08:57:56;14.20;52.20
78788;DHT22;68131;52.508;5.502;2023-04-25T09:00:27;13.80;53.10
78788;DHT22;68131;52.508;5.502;2023-04-25T09:05:31;12.70;54.60
78788;DHT22;68131;52.508;5.502;2023-04-25T09:08:01;12.20;56.30
78788;DHT22;68131;52.508;5.502;2023-04-25T09:10:34;11.80;57.00
78788;DHT22;68131;52.508;5.502;2023-04-25T09:13:05;11.50;57.80
78788;DHT22;68131;52.508;5.502;2023-04-25T09:15:50;11.40;58.20
78788;DHT22;68131;52.508;5.502;2023-04-25T09:18:38;11.40;58.80
78788;DHT22;68131;52.508;5.502;2023-04-25T09:21:09;11.30;59.30
78788;DHT22;68131;52.508;5.502;2023-04-25T09:23:40;11.50;59.70
78788;DHT22;68131;52.508;5.502;2023-04-25T09:26:14;11.90;59.20
78788;DHT22;68131;52.508;5.502;2023-04-25T09:28:44;12.20;59.30
78788;DHT22;68131;52.508;5.502;2023-04-25T09:31:21;12.40;57.50
78788;DHT22;68131;52.508;5.502;2023-04-25T09:33:59;12.50;57.50
78788;DHT22;68131;52.508;5.502;2023-04-25T09:36:30;12.60;57.30
78788;DHT22;68131;52.508;5.502;2023-04-25T09:39:20;12.50;57.30
78788;DHT22;68131;52.508;5.502;2023-04-25T09:42:04;12.40;57.30
78788;DHT22;68131;52.508;5.502;2023-04-25T09:44:33;12.30;57.30
78788;DHT22;68131;52.508;5.502;2023-04-25T09:47:02;12.20;57.10
78788;DHT22;68131;52.508;5.502;2023-04-25T09:49:32;12.20;57.10
78788;DHT22;68131;52.508;5.502;2023-04-25T09:52:08;12.50;56.70
78788;DHT22;68131;52.508;5.502;2023-04-25T09:54:44;12.80;56.30
78788;DHT22;68131;52.508;5.502;2023-04-25T09:57:20;13.20;56.30
78788;DHT22;68131;52.508;5.502;2023-04-25T09:59:51;13.60;54.20
78788;DHT22;68131;52.508;5.502;2023-04-25T10:02:22;13.80;54.20
78788;DHT22;68131;52.508;5.502;2023-04-25T10:04:55;13.90;53.70
78788;DHT22;68131;52.508;5.502;2023-04-25T10:07:34;13.90;51.00
78788;DHT22;68131;52.508;5.502;2023-04-25T10:10:09;13.80;51.60
78788;DHT22;68131;52.508;5.502;2023-04-25T10:12:44;13.90;51.60
78788;DHT22;68131;52.508;5.502;2023-04-25T10:15:15;14.00;51.30
78788;DHT22;68131;52.508;5.502;2023-04-25T10:17:44;14.10;50.80
78788;DHT22;68131;52.508;5.502;2023-04-25T10:20:14;14.20;50.80
78788;DHT22;68131;52.508;5.502;2023-04-25T10:22:45;14.40;50.70
78788;DHT22;68131;52.508;5.502;2023-04-25T10:25:15;14.40;50.60
78788;DHT22;68131;52.508;5.502;2023-04-25T10:27:46;14.20;51.60
78788;DHT22;68131;52.508;5.502;2023-04-25T10:30:16;14.10;52.10
78788;DHT22;68131;52.508;5.502;2023-04-25T10:32:45;13.90;52.50
78788;DHT22;68131;52.508;5.502;2023-04-25T10:35:17;13.80;53.20
78788;DHT22;68131;52.508;5.502;2023-04-25T10:38:00;13.80;52.30
78788;DHT22;68131;52.508;5.502;2023-04-25T10:40:32;13.80;51.90
78788;DHT22;68131;52.508;5.502;2023-04-25T10:43:37;13.50;51.90
78788;DHT22;68131;52.508;5.502;2023-04-25T10:46:16;13.30;52.30
78788;DHT22;68131;52.508;5.502;2023-04-25T10:48:47;13.20;52.30
78788;DHT22;68131;52.508;5.502;2023-04-25T10:51:19;13.20;51.90
78788;DHT22;68131;52.508;5.502;2023-04-25T10:53:57;13.30;51.60
78788;DHT22;68131;52.508;5.502;2023-04-25T10:56:27;13.40;51.70
78788;DHT22;68131;52.508;5.502;2023-04-25T10:59:07;13.50;51.10
78788;DHT22;68131;52.508;5.502;2023-04-25T11:01:39;13.40;51.10
78788;DHT22;68131;52.508;5.502;2023-04-25T11:04:19;13.50;51.40
78788;DHT22;68131;52.508;5.502;2023-04-25T11:07:03;13.40;50.70
78788;DHT22;68131;52.508;5.502;2023-04-25T11:09:35;13.30;51.10
78788;DHT22;68131;52.508;5.502;2023-04-25T11:12:06;13.20;51.50
78788;DHT22;68131;52.508;5.502;2023-04-25T11:14:40;13.30;50.80
78788;DHT22;68131;52.508;5.502;2023-04-25T11:17:09;13.40;50.50
78788;DHT22;68131;52.508;5.502;2023-04-25T11:19:39;13.40;50.50
78788;DHT22;68131;52.508;5.502;2023-04-25T11:22:10;13.40;50.40
78788;DHT22;68131;52.508;5.502;2023-04-25T11:24:39;13.50;50.30
78788;DHT22;68131;52.508;5.502;2023-04-25T11:27:09;13.50;50.30
78788;DHT22;68131;52.508;5.502;2023-04-25T11:29:41;13.50;50.40
78788;DHT22;68131;52.508;5.502;2023-04-25T11:32:10;13.40;50.20
78788;DHT22;68131;52.508;5.502;2023-04-25T11:34:39;13.20;50.80
78788;DHT22;68131;52.508;5.502;2023-04-25T11:37:11;13.20;50.80
78788;DHT22;68131;52.508;5.502;2023-04-25T11:39:43;13.20;50.20
78788;DHT22;68131;52.508;5.502;2023-04-25T11:42:13;13.30;50.40
78788;DHT22;68131;52.508;5.502;2023-04-25T11:44:45;13.20;51.40
78788;DHT22;68131;52.508;5.502;2023-04-25T11:47:14;13.20;52.00
78788;DHT22;68131;52.508;5.502;2023-04-25T11:49:43;13.20;51.90
78788;DHT22;68131;52.508;5.502;2023-04-25T11:52:12;13.20;51.90
78788;DHT22;68131;52.508;5.502;2023-04-25T11:54:41;13.30;52.20
78788;DHT22;68131;52.508;5.502;2023-04-25T11:57:13;13.40;52.00
78788;DHT22;68131;52.508;5.502;2023-04-25T11:59:44;13.50;52.30
78788;DHT22;68131;52.508;5.502;2023-04-25T12:02:24;13.60;51.70
78788;DHT22;68131;52.508;5.502;2023-04-25T12:04:53;13.60;51.70
78788;DHT22;68131;52.508;5.502;2023-04-25T12:07:29;13.30;51.90
78788;DHT22;68131;52.508;5.502;2023-04-25T12:09:58;12.90;51.90
78788;DHT22;68131;52.508;5.502;2023-04-25T12:12:27;12.50;52.20
78788;DHT22;68131;52.508;5.502;2023-04-25T12:15:12;12.20;53.00
78788;DHT22;68131;52.508;5.502;2023-04-25T12:17:42;12.00;53.80
78788;DHT22;68131;52.508;5.502;2023-04-25T12:20:14;12.00;53.80
78788;DHT22;68131;52.508;5.502;2023-04-25T12:22:45;12.00;53.60
78788;DHT22;68131;52.508;5.502;2023-04-25T12:25:34;12.00;53.20
78788;DHT22;68131;52.508;5.502;2023-04-25T12:28:14;12.10;53.00
78788;DHT22;68131;52.508;5.502;2023-04-25T12:31:01;12.10;52.90
78788;DHT22;68131;52.508;5.502;2023-04-25T12:33:32;12.10;52.70
78788;DHT22;68131;52.508;5.502;2023-04-25T12:36:03;12.10;53.10
78788;DHT22;68131;52.508;5.502;2023-04-25T12:38:36;12.10;53.40
78788;DHT22;68131;52.508;5.502;2023-04-25T12:41:06;12.20;53.80
78788;DHT22;68131;52.508;5.502;2023-04-25T12:43:36;12.40;54.20
78788;DHT22;68131;52.508;5.502;2023-04-25T12:46:08;12.50;54.40
78788;DHT22;68131;52.508;5.502;2023-04-25T12:48:37;12.60;54.00
78788;DHT22;68131;52.508;5.502;2023-04-25T12:51:06;12.50;54.20
78788;DHT22;68131;52.508;5.502;2023-04-25T12:53:35;12.60;54.20
78788;DHT22;68131;52.508;5.502;2023-04-25T12:56:07;12.50;53.90
78788;DHT22;68131;52.508;5.502;2023-04-25T12:58:36;12.60;54.20
78788;DHT22;68131;52.508;5.502;2023-04-25T13:01:08;12.60;53.90
78788;DHT22;68131;52.508;5.502;2023-04-25T13:03:38;12.40;54.10
78788;DHT22;68131;52.508;5.502;2023-04-25T13:06:07;12.30;53.90
78788;DHT22;68131;52.508;5.502;2023-04-25T13:08:36;12.30;54.20
78788;DHT22;68131;52.508;5.502;2023-04-25T13:11:06;12.20;54.30
78788;DHT22;68131;52.508;5.502;2023-04-25T13:13:36;12.20;54.30
78788;DHT22;68131;52.508;5.502;2023-04-25T13:16:09;12.20;53.70
78788;DHT22;68131;52.508;5.502;2023-04-25T13:18:40;12.20;54.20
78788;DHT22;68131;52.508;5.502;2023-04-25T13:21:09;12.30;53.90
78788;DHT22;68131;52.508;5.502;2023-04-25T13:23:40;12.30;53.50
78788;DHT22;68131;52.508;5.502;2023-04-25T13:26:12;12.40;53.40
78788;DHT22;68131;52.508;5.502;2023-04-25T13:28:41;12.40;53.30
78788;DHT22;68131;52.508;5.502;2023-04-25T13:31:13;12.30;52.90
78788;DHT22;68131;52.508;5.502;2023-04-25T13:33:43;12.20;52.90
78788;DHT22;68131;52.508;5.502;2023-04-25T13:36:12;12.20;53.20
78788;DHT22;68131;52.508;5.502;2023-04-25T13:38:41;12.20;53.30
78788;DHT22;68131;52.508;5.502;2023-04-25T13:41:13;12.20;53.50
78788;DHT22;68131;52.508;5.502;2023-04-25T13:43:45;12.10;52.70
78788;DHT22;68131;52.508;5.502;2023-04-25T13:46:18;12.00;53.50
78788;DHT22;68131;52.508;5.502;2023-04-25T13:48:47;12.00;53.70
78788;DHT22;68131;52.508;5.502;2023-04-25T13:51:16;11.90;53.50
78788;DHT22;68131;52.508;5.502;2023-04-25T13:53:46;11.90;53.30
78788;DHT22;68131;52.508;5.502;2023-04-25T13:56:16;11.90;53.20
78788;DHT22;68131;52.508;5.502;2023-04-25T13:58:45;11.90;53.30
78788;DHT22;68131;52.508;5.502;2023-04-25T14:01:17;11.90;52.80
78788;DHT22;68131;52.508;5.502;2023-04-25T14:03:47;11.80;53.10
78788;DHT22;68131;52.508;5.502;2023-04-25T14:06:16;11.90;53.10
78788;DHT22;68131;52.508;5.502;2023-04-25T14:08:50;11.90;53.20
78788;DHT22;68131;52.508;5.502;2023-04-25T14:11:19;12.10;53.20
78788;DHT22;68131;52.508;5.502;2023-04-25T14:13:48;12.10;52.00
78788;DHT22;68131;52.508;5.502;2023-04-25T14:16:20;12.10;50.00
78788;DHT22;68131;52.508;5.502;2023-04-25T14:18:49;12.10;49.10
78788;DHT22;68131;52.508;5.502;2023-04-25T14:21:18;12.10;49.00
78788;DHT22;68131;52.508;5.502;2023-04-25T14:23:47;12.10;48.90
78788;DHT22;68131;52.508;5.502;2023-04-25T14:26:16;12.10;49.20
78788;DHT22;68131;52.508;5.502;2023-04-25T14:28:45;12.20;49.50
78788;DHT22;68131;52.508;5.502;2023-04-25T14:31:14;12.10;49.60
78788;DHT22;68131;52.508;5.502;2023-04-25T14:33:46;12.10;49.90
78788;DHT22;68131;52.508;5.502;2023-04-25T14:36:16;12.10;51.30
78788;DHT22;68131;52.508;5.502;2023-04-25T14:38:47;12.10;52.50
78788;DHT22;68131;52.508;5.502;2023-04-25T14:41:16;12.00;53.80
78788;DHT22;68131;52.508;5.502;2023-04-25T14:43:45;12.00;54.10
78788;DHT22;68131;52.508;5.502;2023-04-25T14:46:15;11.90;54.40
78788;DHT22;68131;52.508;5.502;2023-04-25T14:48:46;11.80;54.50
78788;DHT22;68131;52.508;5.502;2023-04-25T14:51:16;11.70;54.80
78788;DHT22;68131;52.508;5.502;2023-04-25T14:53:45;11.60;54.70
78788;DHT22;68131;52.508;5.502;2023-04-25T14:56:14;11.50;54.40
78788;DHT22;68131;52.508;5.502;2023-04-25T14:58:43;11.40;53.80
78788;DHT22;68131;52.508;5.502;2023-04-25T15:01:13;11.20;54.00
78788;DHT22;68131;52.508;5.502;2023-04-25T15:03:42;11.20;54.80
78788;DHT22;68131;52.508;5.502;2023-04-25T15:06:14;11.40;54.20
78788;DHT22;68131;52.508;5.502;2023-04-25T15:08:43;11.40;54.10
78788;DHT22;68131;52.508;5.502;2023-04-25T15:11:12;11.40;54.90
78788;DHT22;68131;52.508;5.502;2023-04-25T15:13:41;11.20;55.10
78788;DHT22;68131;52.508;5.502;2023-04-25T15:16:11;11.10;55.10
78788;DHT22;68131;52.508;5.502;2023-04-25T15:18:40;11.10;54.60
78788;DHT22;68131;52.508;5.502;2023-04-25T15:21:10;11.20;54.40
78788;DHT22;68131;52.508;5.502;2023-04-25T15:23:41;11.30;54.50
78788;DHT22;68131;52.508;5.502;2023-04-25T15:26:10;11.40;54.50
78788;DHT22;68131;52.508;5.502;2023-04-25T15:28:40;11.40;54.60
78788;DHT22;68131;52.508;5.502;2023-04-25T15:31:09;11.40;54.90
78788;DHT22;68131;52.508;5.502;2023-04-25T15:33:38;11.50;54.60
78788;DHT22;68131;52.508;5.502;2023-04-25T15:36:08;11.40;54.70
78788;DHT22;68131;52.508;5.502;2023-04-25T15:38:37;11.40;55.00
78788;DHT22;68131;52.508;5.502;2023-04-25T15:41:09;11.50;55.10
78788;DHT22;68131;52.508;5.502;2023-04-25T15:43:38;11.60;55.10
78788;DHT22;68131;52.508;5.502;2023-04-25T15:46:07;11.60;55.80
78788;DHT22;68131;52.508;5.502;2023-04-25T15:48:37;11.70;56.20
78788;DHT22;68131;52.508;5.502;2023-04-25T15:51:06;11.70;56.00
78788;DHT22;68131;52.508;5.502;2023-04-25T15:53:35;11.80;55.60
78788;DHT22;68131;52.508;5.502;2023-04-25T15:56:05;11.90;53.80
78788;DHT22;68131;52.508;5.502;2023-04-25T15:58:36;11.90;53.70
78788;DHT22;68131;52.508;5.502;2023-04-25T16:01:06;11.90;53.20
78788;DHT22;68131;52.508;5.502;2023-04-25T16:03:35;11.90;53.50
78788;DHT22;68131;52.508;5.502;2023-04-25T16:06:04;12.00;53.50
78788;DHT22;68131;52.508;5.502;2023-04-25T16:08:33;12.00;53.70
78788;DHT22;68131;52.508;5.502;2023-04-25T16:11:02;12.00;53.90
78788;DHT22;68131;52.508;5.502;2023-04-25T16:13:32;12.10;54.00